Startpagina
METAR-TAF:

METAR-TAF

Vliegvelden :

Cordova, Alaska, Verenigde Staten

breedte: 60-29-30N, lengte: 145-28-40W, hoogte: 13 m

Actueel weer

Dit bericht is 40 minuten geleden gemaakt, om 23:53 UTC
Wind 14 kt uit het oostzuidoosten met uitschieters tot 19 kt
Temperatuur 11°C
Vochtigheid 54%
Druk 1005 hPa
Zicht: 16.1 km
Weinig wolken op 4000 ft
Gebroken wolken op 20000 ft

METAR: PACV 212353Z 12014G19KT 10SM FEW040 BKN200 11/02 A2969 RMK AO2 SLP052 T01110022 10111 20072 56019

Tijdstip: 16:33 (00:33 UTC)

Verwachting

Dit bericht is 1 uur en het 13 minuten geleden gemaakt, om 23:20 UTC
Verwachting geldig van 22 om 00 UTC tot 22 om 24 UTC
Wind 10 kt uit het oosten met uitschieters tot 18 kt
Zicht: 10 km
Gebroken wolken op 3500 ft
buien in de omgeving
Van 22 om 0500 UTC
Wind 12 kt uit het oosten met uitschieters tot 20 kt
Zicht: 8.0 km
Geheel bewolkt op 2500 ft
lichte regen, nevel

TAF: PACV 212320Z 2200/2224 10010G18KT P6SM VCSH BKN035 FM220500 08012G20KT 5SM -RA BR OVC025

Waarnemingen en weersverwachtingen van meer dan 4000 vliegvelden (METAR en TAF).

De beschikbare stations zijn de gele en rode punten op de kaart.

Ga met uw muis naar het station om de naam te zien.

Klik dan om waarnemingen en weersverwachtingen te zien.

kaart wijzigen: klik op de groene knoppen met een zwart kruis om in te zoomen, op de groene knop met een streepje om uit te zoomen of op de groene pijlen voor aangrenzende kaarten.


METAR-TAF: